createdAt,value
2019-04-20T00:01:50.687Z,101491.83
2019-04-20T00:04:55.028Z,101496.78
2019-04-20T00:08:01.218Z,101494.59
2019-04-20T00:11:17.695Z,101501.73
2019-04-20T00:14:19.221Z,101497.77
2019-04-20T00:17:19.999Z,101492.07
2019-04-20T00:20:29.302Z,101496.19
2019-04-20T00:23:51.441Z,101495.97
2019-04-20T00:27:18.198Z,101495.80
2019-04-20T00:30:25.983Z,101500.84
2019-04-20T00:33:25.772Z,101496.77
2019-04-20T00:36:13.867Z,101494.27
2019-04-20T00:39:20.237Z,101490.69
2019-04-20T00:42:33.946Z,101487.63
2019-04-20T00:45:33.714Z,101491.32
2019-04-20T00:48:47.351Z,101485.05
2019-04-20T00:52:07.499Z,101485.48
2019-04-20T00:54:49.439Z,101492.57
2019-04-20T00:57:59.886Z,101481.09
2019-04-20T01:01:20.549Z,101485.69
2019-04-20T01:04:23.826Z,101487.34
2019-04-20T01:07:39.407Z,101487.71
2019-04-20T01:10:41.652Z,101478.83
2019-04-20T01:13:45.965Z,101484.59
2019-04-20T01:16:54.917Z,101493.42
2019-04-20T01:19:54.102Z,101492.94
2019-04-20T01:23:04.862Z,101490.80
2019-04-20T01:26:10.968Z,101488.70
2019-04-20T01:29:21.736Z,101498.23
2019-04-20T01:32:27.839Z,101509.73
2019-04-20T01:35:39.517Z,101510.12
2019-04-20T01:38:44.643Z,101508.72
2019-04-20T01:41:35.168Z,101511.02
2019-04-20T01:44:44.071Z,101514.59
2019-04-20T01:47:50.539Z,101506.49
2019-04-20T01:50:59.672Z,101512.38
2019-04-20T01:54:16.020Z,101512.67
2019-04-20T01:57:53.384Z,101514.78
2019-04-20T02:00:57.314Z,101514.23
2019-04-20T02:04:11.931Z,101511.37
2019-04-20T02:07:13.644Z,101511.80
2019-04-20T02:10:19.983Z,101520.06
2019-04-20T02:13:26.194Z,101520.09
2019-04-20T02:16:38.297Z,101515.11
2019-04-20T02:19:57.222Z,101525.54
2019-04-20T02:22:56.922Z,101525.98
2019-04-20T02:25:48.026Z,101527.05
2019-04-20T02:29:20.255Z,101528.30
2019-04-20T02:32:26.546Z,101529.89
2019-04-20T02:36:04.836Z,101536.97
2019-04-20T02:39:22.126Z,101530.38
2019-04-20T02:45:27.825Z,101533.69
2019-04-20T02:48:25.289Z,101530.64
2019-04-20T02:51:38.987Z,101532.05
2019-04-20T02:54:42.194Z,101528.57
2019-04-20T02:57:47.355Z,101525.94
2019-04-20T03:00:44.823Z,101531.84
2019-04-20T03:03:30.702Z,101522.60
2019-04-20T03:06:39.546Z,101517.41
2019-04-20T03:09:56.578Z,101515.18
2019-04-20T03:13:05.395Z,101524.66
2019-04-20T03:16:04.123Z,101518.84
2019-04-20T03:19:14.183Z,101522.92
2019-04-20T03:22:23.602Z,101515.58
2019-04-20T03:25:53.426Z,101515.77
2019-04-20T03:29:12.796Z,101519.83
2019-04-20T03:36:00.381Z,101515.70
2019-04-20T03:38:45.113Z,101514.84
2019-04-20T03:41:36.279Z,101511.87
2019-04-20T03:44:35.728Z,101510.98
2019-04-20T03:47:54.334Z,101516.69
2019-04-20T03:51:04.629Z,101514.66
2019-04-20T03:54:15.977Z,101516.24
2019-04-20T03:57:36.944Z,101525.67
2019-04-20T04:00:58.295Z,101526.68
2019-04-20T04:04:38.841Z,101525.44
2019-04-20T04:07:33.475Z,101521.57
2019-04-20T04:10:48.536Z,101526.89
2019-04-20T04:13:35.553Z,101519.82
2019-04-20T04:16:47.786Z,101525.45
2019-04-20T04:19:55.808Z,101526.81
2019-04-20T04:23:10.281Z,101530.47
2019-04-20T04:26:20.404Z,101527.64
2019-04-20T04:29:28.817Z,101535.19
2019-04-20T04:32:45.428Z,101533.77
2019-04-20T04:35:28.069Z,101537.30
2019-04-20T04:38:41.904Z,101532.92
2019-04-20T04:41:59.914Z,101538.67
2019-04-20T04:44:43.259Z,101544.84
2019-04-20T04:47:39.018Z,101544.02
2019-04-20T04:50:52.172Z,101548.83
2019-04-20T04:53:58.079Z,101553.97
2019-04-20T04:56:54.908Z,101555.95
2019-04-20T04:59:59.515Z,101558.01
2019-04-20T05:03:26.898Z,101558.83
2019-04-20T05:06:32.069Z,101569.80
2019-04-20T05:09:23.805Z,101566.21
2019-04-20T05:12:31.358Z,101574.84
2019-04-20T05:15:48.423Z,101572.58
2019-04-20T05:19:03.095Z,101579.07
2019-04-20T05:22:17.844Z,101579.34
2019-04-20T05:25:59.627Z,101582.69
2019-04-20T05:28:53.220Z,101576.81
2019-04-20T05:31:57.225Z,101587.20
2019-04-20T05:35:25.495Z,101585.61
2019-04-20T05:38:32.535Z,101581.96
2019-04-20T05:41:26.948Z,101582.54
2019-04-20T05:44:42.795Z,101586.77
2019-04-20T05:47:43.164Z,101590.60
2019-04-20T05:50:49.385Z,101597.88
2019-04-20T05:53:57.420Z,101595.45
2019-04-20T05:57:08.873Z,101593.86
2019-04-20T06:03:11.013Z,101598.33
2019-04-20T06:06:23.548Z,101599.81
2019-04-20T06:09:27.781Z,101597.23
2019-04-20T06:12:35.806Z,101589.73
2019-04-20T06:15:50.554Z,101597.72
2019-04-20T06:18:58.430Z,101591.47
2019-04-20T06:22:14.859Z,101599.08
2019-04-20T06:28:24.595Z,101601.75
2019-04-20T06:31:30.019Z,101602.01
2019-04-20T06:37:53.761Z,101616.87
2019-04-20T06:41:01.117Z,101618.64
2019-04-20T06:44:02.145Z,101612.27
2019-04-20T06:50:08.602Z,101613.96
2019-04-20T06:53:45.516Z,101619.28
2019-04-20T06:56:42.636Z,101608.48
2019-04-20T06:59:43.030Z,101610.41
2019-04-20T07:02:56.360Z,101616.80
2019-04-20T07:06:06.630Z,101615.33
2019-04-20T07:09:06.192Z,101611.84
2019-04-20T07:12:12.846Z,101614.38
2019-04-20T07:15:17.424Z,101619.84
2019-04-20T07:18:31.315Z,101621.22
2019-04-20T07:22:01.860Z,101611.23
2019-04-20T07:24:59.037Z,101611.23
2019-04-20T07:28:02.223Z,101613.54
2019-04-20T07:31:01.836Z,101600.09
2019-04-20T07:34:11.612Z,101615.33
2019-04-20T07:40:24.402Z,101605.17
2019-04-20T07:43:30.011Z,101611.02
2019-04-20T07:46:47.140Z,101610.94
2019-04-20T07:49:41.408Z,101601.54
2019-04-20T07:52:38.735Z,101599.31
2019-04-20T07:55:59.301Z,101599.06
2019-04-20T07:58:50.043Z,101606.66
2019-04-20T08:02:23.576Z,101603.69
2019-04-20T08:05:36.742Z,101597.52
2019-04-20T08:08:43.794Z,101590.86
2019-04-20T08:12:02.738Z,101597.64
2019-04-20T08:15:04.975Z,101591.02
2019-04-20T08:18:06.415Z,101598.01
2019-04-20T08:21:16.734Z,101596.88
2019-04-20T08:24:17.086Z,101588.46
2019-04-20T08:27:13.154Z,101597.97
2019-04-20T08:30:41.399Z,101600.11
2019-04-20T08:34:03.103Z,101591.23
2019-04-20T08:36:56.707Z,101594.38
2019-04-20T08:43:26.509Z,101588.41
2019-04-20T08:46:16.282Z,101582.92
2019-04-20T08:49:26.428Z,101585.60
2019-04-20T08:52:47.107Z,101578.30
2019-04-20T08:55:29.670Z,101578.34
2019-04-20T08:58:18.632Z,101581.97
2019-04-20T09:01:28.258Z,101576.61
2019-04-20T09:04:37.333Z,101571.30
2019-04-20T09:07:47.655Z,101574.44
2019-04-20T09:11:02.679Z,101568.45
2019-04-20T09:13:51.909Z,101571.09
2019-04-20T09:17:05.898Z,101567.39
2019-04-20T09:20:14.471Z,101562.98
2019-04-20T09:23:31.562Z,101556.97
2019-04-20T09:26:41.343Z,101558.62
2019-04-20T09:29:36.825Z,101558.78
2019-04-20T09:33:14.666Z,101553.25
2019-04-20T09:36:17.931Z,101548.63
2019-04-20T09:39:35.171Z,101543.42
2019-04-20T09:42:39.291Z,101541.48
2019-04-20T09:45:48.574Z,101528.19
2019-04-20T09:48:57.009Z,101533.39
2019-04-20T09:52:10.923Z,101527.02
2019-04-20T09:55:14.661Z,101532.58
2019-04-20T09:58:19.215Z,101527.30
2019-04-20T10:01:25.964Z,101523.69
2019-04-20T10:04:19.559Z,101528.08
2019-04-20T10:07:26.108Z,101531.11
2019-04-20T10:10:35.947Z,101520.84
2019-04-20T10:13:36.357Z,101525.22
2019-04-20T10:16:41.988Z,101518.53
2019-04-20T10:19:46.680Z,101519.07
2019-04-20T10:22:51.943Z,101506.86
2019-04-20T10:25:56.567Z,101518.61
2019-04-20T10:29:01.560Z,101507.14
2019-04-20T10:32:08.823Z,101514.80
2019-04-20T10:35:14.742Z,101498.38
2019-04-20T10:38:21.521Z,101507.05
2019-04-20T10:41:35.958Z,101496.45
2019-04-20T10:44:32.521Z,101486.36
2019-04-20T10:47:37.225Z,101501.16
2019-04-20T10:50:41.144Z,101495.25
2019-04-20T10:53:46.454Z,101493.08
2019-04-20T10:56:51.840Z,101492.16
2019-04-20T10:59:55.928Z,101490.69
2019-04-20T11:02:59.858Z,101489.27
2019-04-20T11:06:04.817Z,101480.58
2019-04-20T11:09:09.358Z,101486.83
2019-04-20T11:12:14.462Z,101480.20
2019-04-20T11:15:18.768Z,101474.72
2019-04-20T11:18:22.716Z,101478.66
2019-04-20T11:21:26.595Z,101476.59
2019-04-20T11:24:30.524Z,101470.61
2019-04-20T11:27:36.314Z,101471.56
2019-04-20T11:30:40.506Z,101471.28
2019-04-20T11:33:44.364Z,101471.95
2019-04-20T11:36:48.920Z,101474.16
2019-04-20T11:39:52.947Z,101473.05
2019-04-20T11:42:57.507Z,101461.23
2019-04-20T11:46:02.786Z,101457.72
2019-04-20T11:49:07.915Z,101454.82
2019-04-20T11:52:13.280Z,101450.13
2019-04-20T11:55:18.242Z,101436.41
2019-04-20T11:58:22.193Z,101445.02
2019-04-20T12:01:51.993Z,101445.55
2019-04-20T12:05:10.271Z,101439.02
2019-04-20T12:08:05.087Z,101437.66
2019-04-20T12:11:22.706Z,101430.77
2019-04-20T12:14:15.093Z,101429.69
2019-04-20T12:17:19.629Z,101430.56
2019-04-20T12:20:24.983Z,101418.63
2019-04-20T12:23:28.936Z,101418.27
2019-04-20T12:26:33.072Z,101419.11
2019-04-20T12:29:38.385Z,101410.13
2019-04-20T12:32:46.721Z,101418.97
2019-04-20T12:35:49.990Z,101401.83
2019-04-20T12:38:55.020Z,101403.47
2019-04-20T12:42:03.886Z,101408.63
2019-04-20T12:45:05.981Z,101400.67
2019-04-20T12:48:11.368Z,101404.64
2019-04-20T12:51:15.601Z,101396.94
2019-04-20T12:54:20.650Z,101391.77
2019-04-20T12:57:25.075Z,101390.55
2019-04-20T13:00:49.611Z,101394.38
2019-04-20T13:03:55.256Z,101388.09
2019-04-20T13:06:59.683Z,101384.91
2019-04-20T13:10:05.710Z,101385.38
2019-04-20T13:13:22.730Z,101377.05
2019-04-20T13:16:36.464Z,101371.48
2019-04-20T13:19:41.530Z,101373.97
2019-04-20T13:22:46.610Z,101371.97
2019-04-20T13:25:50.859Z,101352.28
2019-04-20T13:28:55.180Z,101357.38
2019-04-20T13:32:00.170Z,101358.19
2019-04-20T13:35:04.597Z,101351.67
2019-04-20T13:38:09.969Z,101353.23
2019-04-20T13:41:15.681Z,101351.80
2019-04-20T13:44:20.105Z,101337.31
2019-04-20T13:47:25.079Z,101337.05
2019-04-20T13:50:29.625Z,101339.32
2019-04-20T13:53:35.035Z,101332.47
2019-04-20T13:56:39.673Z,101335.94
2019-04-20T13:59:48.094Z,101327.19
2019-04-20T14:02:58.630Z,101327.27
2019-04-20T14:06:02.990Z,101322.01
2019-04-20T14:09:09.779Z,101316.28
2019-04-20T14:12:22.470Z,101311.98
2019-04-20T14:15:20.293Z,101313.70
2019-04-20T14:18:25.057Z,101311.66
2019-04-20T14:21:30.206Z,101312.20
2019-04-20T14:24:35.013Z,101296.41
2019-04-20T14:27:40.251Z,101303.71
2019-04-20T14:30:45.776Z,101293.58
2019-04-20T14:33:50.862Z,101291.57
2019-04-20T14:36:55.190Z,101282.97
2019-04-20T14:40:00.499Z,101280.11
2019-04-20T14:43:04.520Z,101283.06
2019-04-20T14:46:08.774Z,101280.35
2019-04-20T14:49:12.686Z,101277.53
2019-04-20T14:52:17.654Z,101275.52
2019-04-20T14:55:22.561Z,101273.55
2019-04-20T14:59:05.244Z,101265.38
2019-04-20T15:02:15.376Z,101264.52
2019-04-20T15:05:19.458Z,101262.59
2019-04-20T15:08:24.875Z,101255.25
2019-04-20T15:11:29.028Z,101254.30
2019-04-20T15:14:32.840Z,101251.16
2019-04-20T15:17:43.717Z,101248.31
2019-04-20T15:20:51.325Z,101246.32
2019-04-20T15:23:55.588Z,101241.03
2019-04-20T15:27:00.511Z,101238.59
2019-04-20T15:30:06.613Z,101231.73
2019-04-20T15:33:10.496Z,101228.50
2019-04-20T15:36:14.439Z,101219.09
2019-04-20T15:39:20.770Z,101231.00
2019-04-20T15:42:25.371Z,101221.14
2019-04-20T15:45:29.572Z,101215.53
2019-04-20T15:48:34.308Z,101219.06
2019-04-20T15:51:39.654Z,101220.09
2019-04-20T15:54:45.471Z,101210.88
2019-04-20T15:57:50.477Z,101210.28
2019-04-20T16:00:54.691Z,101212.44
2019-04-20T16:04:03.606Z,101206.14
2019-04-20T16:07:08.615Z,101208.64
2019-04-20T16:10:13.001Z,101209.61
2019-04-20T16:13:26.055Z,101203.61
2019-04-20T16:16:23.867Z,101200.91
2019-04-20T16:19:40.799Z,101192.77
2019-04-20T16:22:34.382Z,101194.47
2019-04-20T16:25:45.663Z,101197.96
2019-04-20T16:28:50.137Z,101191.18
2019-04-20T16:31:54.671Z,101185.84
2019-04-20T16:35:00.253Z,101190.78
2019-04-20T16:38:04.495Z,101187.07
2019-04-20T16:41:08.467Z,101181.43
2019-04-20T16:44:13.435Z,101177.00
2019-04-20T16:47:18.483Z,101177.90
2019-04-20T16:50:22.732Z,101174.45
2019-04-20T16:53:26.928Z,101175.44
2019-04-20T16:56:30.811Z,101163.41
2019-04-20T16:59:40.080Z,101170.30
2019-04-20T17:02:42.397Z,101167.84
2019-04-20T17:05:49.566Z,101161.95
2019-04-20T17:08:52.282Z,101168.77
2019-04-20T17:11:57.391Z,101159.00
2019-04-20T17:15:01.798Z,101160.87
2019-04-20T17:18:06.010Z,101161.16
2019-04-20T17:21:16.558Z,101161.14
2019-04-20T17:24:15.619Z,101162.99
2019-04-20T17:27:48.872Z,101161.95
2019-04-20T17:31:03.086Z,101165.57
2019-04-20T17:34:26.930Z,101162.50
2019-04-20T17:37:16.244Z,101167.77
2019-04-20T17:40:41.873Z,101164.24
2019-04-20T17:43:37.176Z,101164.38
2019-04-20T17:46:44.935Z,101153.94
2019-04-20T17:50:00.728Z,101156.53
2019-04-20T17:53:03.833Z,101159.49
2019-04-20T17:55:54.806Z,101158.63
2019-04-20T17:58:58.898Z,101159.72
2019-04-20T18:02:47.417Z,101159.83
2019-04-20T18:05:55.787Z,101156.64
2019-04-20T18:08:56.415Z,101154.88
2019-04-20T18:11:51.139Z,101158.55
2019-04-20T18:15:10.315Z,101161.06
2019-04-20T18:18:32.405Z,101153.44
2019-04-20T18:21:32.940Z,101156.57
2019-04-20T18:25:02.584Z,101154.67
2019-04-20T18:27:59.925Z,101158.39
2019-04-20T18:30:59.289Z,101163.23
2019-04-20T18:34:08.957Z,101160.37
2019-04-20T18:37:13.425Z,101160.44
2019-04-20T18:40:28.027Z,101164.92
2019-04-20T18:43:27.461Z,101160.55
2019-04-20T18:46:55.520Z,101159.14
2019-04-20T18:49:48.626Z,101159.58
2019-04-20T18:52:42.140Z,101172.06
2019-04-20T18:55:50.469Z,101178.53
2019-04-20T18:58:51.810Z,101169.72
2019-04-20T19:01:57.030Z,101174.46
2019-04-20T19:05:03.557Z,101174.97
2019-04-20T19:08:11.545Z,101182.43
2019-04-20T19:11:18.041Z,101181.66
2019-04-20T19:14:40.792Z,101181.11
2019-04-20T19:18:06.934Z,101184.77
2019-04-20T19:21:05.146Z,101181.14
2019-04-20T19:24:12.648Z,101178.32
2019-04-20T19:27:17.065Z,101187.11
2019-04-20T19:30:34.384Z,101186.29
2019-04-20T19:33:42.184Z,101181.95
2019-04-20T19:36:38.970Z,101183.53
2019-04-20T19:39:53.238Z,101179.72
2019-04-20T19:42:59.206Z,101180.41
2019-04-20T19:46:29.740Z,101176.01
2019-04-20T19:49:07.951Z,101181.44
2019-04-20T19:52:31.009Z,101182.87
2019-04-20T19:55:24.413Z,101189.20
2019-04-20T19:58:28.213Z,101181.19
2019-04-20T20:01:22.028Z,101181.94
2019-04-20T20:04:26.294Z,101186.85
2019-04-20T20:07:37.980Z,101188.00
2019-04-20T20:10:40.496Z,101185.59
2019-04-20T20:13:47.962Z,101184.34
2019-04-20T20:17:04.134Z,101182.97
2019-04-20T20:20:20.018Z,101183.83
2019-04-20T20:23:00.690Z,101178.23
2019-04-20T20:26:07.173Z,101184.96
2019-04-20T20:29:22.825Z,101191.31
2019-04-20T20:32:37.482Z,101188.24
2019-04-20T20:35:28.614Z,101187.15
2019-04-20T20:38:36.951Z,101194.13
2019-04-20T20:41:48.976Z,101190.47
2019-04-20T20:44:51.725Z,101189.20
2019-04-20T20:48:05.050Z,101197.27
2019-04-20T20:51:10.453Z,101194.20
2019-04-20T20:54:09.229Z,101195.30
2019-04-20T20:57:12.704Z,101194.95
2019-04-20T21:00:25.198Z,101197.24
2019-04-20T21:03:25.612Z,101186.28
2019-04-20T21:06:22.659Z,101193.00
2019-04-20T21:09:27.195Z,101188.83
2019-04-20T21:12:31.149Z,101190.08
2019-04-20T21:15:35.371Z,101187.69
2019-04-20T21:18:55.637Z,101188.34
2019-04-20T21:21:54.734Z,101183.17
2019-04-20T21:24:53.075Z,101190.35
2019-04-20T21:27:57.024Z,101186.38
2019-04-20T21:31:10.488Z,101186.33
2019-04-20T21:34:12.646Z,101181.47
2019-04-20T21:37:17.160Z,101178.81
2019-04-20T21:40:27.839Z,101171.98
2019-04-20T21:43:29.538Z,101182.83
2019-04-20T21:46:38.914Z,101182.02
2019-04-20T21:49:45.963Z,101184.27
2019-04-20T21:52:45.115Z,101184.27
2019-04-20T21:55:46.053Z,101179.20
2019-04-20T21:58:56.664Z,101161.74
2019-04-20T22:02:04.372Z,101175.00
2019-04-20T22:05:01.413Z,101175.00
2019-04-20T22:08:10.584Z,101171.05
2019-04-20T22:11:11.825Z,101160.63
2019-04-20T22:14:19.495Z,101163.08
2019-04-20T22:17:27.578Z,101159.84
2019-04-20T22:20:36.630Z,101158.83
2019-04-20T22:23:53.076Z,101156.01
2019-04-20T22:26:52.614Z,101151.77
2019-04-20T22:29:46.213Z,101151.64
2019-04-20T22:32:53.225Z,101146.48
2019-04-20T22:36:00.902Z,101155.41
2019-04-20T22:39:11.559Z,101158.70
2019-04-20T22:42:17.906Z,101155.21
2019-04-20T22:45:21.261Z,101154.73
2019-04-20T22:48:25.170Z,101159.66
2019-04-20T22:51:43.147Z,101152.72
2019-04-20T22:54:52.158Z,101155.01
2019-04-20T22:57:53.448Z,101159.99
2019-04-20T23:00:52.041Z,101153.27
2019-04-20T23:03:52.734Z,101145.91
2019-04-20T23:06:57.338Z,101151.35
2019-04-20T23:10:03.409Z,101143.72
2019-04-20T23:13:07.833Z,101141.81
2019-04-20T23:16:11.729Z,101138.31
2019-04-20T23:19:30.052Z,101140.92
2019-04-20T23:22:22.967Z,101134.56
2019-04-20T23:25:27.153Z,101130.67
2019-04-20T23:28:31.328Z,101127.23
2019-04-20T23:31:39.031Z,101121.73
2019-04-20T23:34:42.679Z,101115.97
2019-04-20T23:37:46.681Z,101120.58
2019-04-20T23:40:52.092Z,101111.29
2019-04-20T23:44:18.500Z,101114.09
2019-04-20T23:47:39.756Z,101109.64
2019-04-20T23:50:58.227Z,101117.27
2019-04-20T23:53:58.611Z,101113.67
2019-04-20T23:56:55.662Z,101115.02
